Terminal Aerodrome Forecast
Issued by NWS Jackson, KY

Home | Current Version | Previous Version | Text Only | Print | Product List | Glossary On
Versions: 1 2 3 4 5 6 7 8 9 10 11 12 13 14 15 16 17 18 19 20
000
FTUS43 KJKL 170300 AAA
TAFJKL
TAF AMD
KJKL 170353Z 1704/1724 25008KT 6SM -DZ OVC015
     FM170500 25006KT 6SM -DZ OVC008
     FM171400 27004KT 6SM -DZ OVC020
     FM172000 27005KT P6SM BKN030
     FM172300 VRB03KT P6SM BKN060=

USA.gov is the U.S. government's official web portal to all federal, state and local government web resources and services.